Time;durP1;ratioP1;P1;durP2;ratioP2;P2;SDS_P1;SDS_P2;PMS_P1;PMS_P2;Temp;Humidity;BMP_temperature;BMP_pressure;BME280_temperature;BME280_humidity;BME280_pressure;Samples;Min_cycle;Max_cycle;Signal;HPM_P1;HPM_P2
2022/11/10 00:00:39;;;;;;;7.53;2.30;;;12.50;1.00;;;;;;4930408;28;20447;-85
2022/11/10 00:03:08;;;;;;;6.77;2.23;;;12.60;1.00;;;;;;4929696;28;20435;-85
2022/11/10 00:05:38;;;;;;;7.27;2.50;;;12.60;1.00;;;;;;4933037;28;20485;-84
2022/11/10 00:08:09;;;;;;;6.47;2.20;;;12.60;1.00;;;;;;4934566;28;20480;-84
2022/11/10 00:10:55;;;;;;;8.47;2.20;;;12.70;1.00;;;;;;4932403;28;20473;-85
2022/11/10 00:13:24;;;;;;;7.27;2.60;;;12.70;1.00;;;;;;4932861;28;20435;-84
2022/11/10 00:18:36;;;;;;;6.80;1.90;;;12.70;1.00;;;;;;4928973;28;20497;-85
2022/11/10 00:21:06;;;;;;;7.83;2.13;;;12.70;1.00;;;;;;4930742;28;20531;-85
2022/11/10 00:23:33;;;;;;;10.33;2.20;;;12.80;1.00;;;;;;4932808;28;20885;-84
2022/11/10 00:26:04;;;;;;;7.53;2.20;;;12.80;1.00;;;;;;4927363;28;20468;-84
2022/11/10 00:28:32;;;;;;;8.73;2.33;;;12.80;1.00;;;;;;4927950;28;20457;-86
2022/11/10 00:31:06;;;;;;;6.63;1.83;;;12.80;1.00;;;;;;4937277;28;20625;-86
2022/11/10 00:33:41;;;;;;;11.97;2.60;;;12.80;1.00;;;;;;4931388;28;20484;-87
2022/11/10 00:36:09;;;;;;;8.70;2.20;;;12.90;1.00;;;;;;4931917;28;20502;-86
2022/11/10 00:38:51;;;;;;;10.10;2.90;;;12.90;1.00;;;;;;4931020;28;20470;-87
2022/11/10 00:41:21;;;;;;;7.57;2.67;;;13.00;1.00;;;;;;4930182;28;20470;-85
2022/11/10 00:43:50;;;;;;;7.20;2.10;;;13.00;1.00;;;;;;4932493;28;20470;-85
2022/11/10 00:46:18;;;;;;;6.33;2.30;;;13.00;1.00;;;;;;4928362;28;20465;-86
2022/11/10 00:48:45;;;;;;;6.83;2.60;;;13.00;1.00;;;;;;4930155;28;20436;-85
2022/11/10 00:51:21;;;;;;;6.70;2.30;;;13.00;1.00;;;;;;4933387;28;20465;-85
2022/11/10 00:53:54;;;;;;;9.03;2.23;;;13.00;1.00;;;;;;4926166;28;20435;-86
2022/11/10 00:56:22;;;;;;;6.60;2.10;;;13.00;1.00;;;;;;4931773;28;20524;-85
2022/11/10 00:58:54;;;;;;;7.07;2.50;;;13.00;1.00;;;;;;4942870;28;20477;-86
2022/11/10 01:01:23;;;;;;;7.57;2.57;;;13.00;1.00;;;;;;4935213;28;20562;-86
2022/11/10 01:03:51;;;;;;;8.63;2.67;;;13.00;1.00;;;;;;4933762;28;20617;-86
2022/11/10 01:06:19;;;;;;;7.97;2.87;;;13.00;1.00;;;;;;4931882;28;20571;-86
2022/11/10 01:08:48;;;;;;;7.67;2.10;;;13.10;1.00;;;;;;4931798;28;20449;-86
2022/11/10 01:11:17;;;;;;;7.93;2.30;;;13.10;1.00;;;;;;4928746;28;20498;-85
2022/11/10 01:13:51;;;;;;;8.17;2.73;;;13.10;1.00;;;;;;4934499;28;20500;-86
2022/11/10 01:16:23;;;;;;;11.13;3.07;;;13.10;1.00;;;;;;4928659;28;20546;-87
2022/11/10 01:18:50;;;;;;;8.97;2.27;;;13.20;1.00;;;;;;4929516;28;20486;-87
2022/11/10 01:21:21;;;;;;;7.13;2.30;;;13.20;1.00;;;;;;4932634;28;20475;-85
2022/11/10 01:23:48;;;;;;;6.60;2.17;;;13.20;1.00;;;;;;4932696;28;20450;-86
2022/11/10 01:26:17;;;;;;;8.73;2.20;;;13.20;1.00;;;;;;4930319;28;21390;-84
2022/11/10 01:28:52;;;;;;;7.30;2.10;;;13.20;1.00;;;;;;4929394;29;20480;-84
2022/11/10 01:31:21;;;;;;;6.50;2.20;;;13.20;1.00;;;;;;4933365;28;20540;-85
2022/11/10 01:33:49;;;;;;;5.93;2.10;;;13.20;1.00;;;;;;4932056;28;20516;-85
2022/11/10 01:36:20;;;;;;;6.47;2.17;;;13.20;1.00;;;;;;4928987;28;21364;-86
2022/11/10 01:38:55;;;;;;;7.83;2.03;;;13.20;1.00;;;;;;4928697;28;20470;-84
2022/11/10 01:41:22;;;;;;;9.40;2.90;;;13.30;1.00;;;;;;4929782;28;20554;-86
2022/11/10 01:43:52;;;;;;;6.87;2.13;;;13.20;1.00;;;;;;4930441;28;20924;-88
2022/11/10 01:46:21;;;;;;;7.93;2.23;;;13.20;1.00;;;;;;4928062;28;20511;-85
2022/11/10 01:49:01;;;;;;;6.47;1.93;;;13.20;1.00;;;;;;4929552;28;21000;-87
2022/11/10 01:51:39;;;;;;;8.40;2.13;;;13.20;1.00;;;;;;4923425;28;20988;-86
2022/11/10 01:54:20;;;;;;;7.83;2.60;;;13.10;1.00;;;;;;4929646;28;20479;-86
2022/11/10 01:56:56;;;;;;;8.00;2.20;;;13.10;1.00;;;;;;4936527;28;20468;-86
2022/11/10 01:59:28;;;;;;;7.60;2.43;;;13.10;1.00;;;;;;4931953;28;20514;-86
2022/11/10 02:02:03;;;;;;;6.77;2.10;;;13.00;1.00;;;;;;4927734;28;20504;-85
2022/11/10 02:04:31;;;;;;;8.90;2.07;;;13.00;1.00;;;;;;4930677;28;20503;-85
2022/11/10 02:07:00;;;;;;;7.43;2.23;;;13.10;1.00;;;;;;4923414;28;20487;-84
2022/11/10 02:09:32;;;;;;;7.90;2.57;;;13.00;1.00;;;;;;4927563;28;20456;-85
2022/11/10 02:12:01;;;;;;;8.27;2.33;;;13.00;1.00;;;;;;4923576;28;20489;-86
2022/11/10 02:14:32;;;;;;;6.30;1.97;;;13.00;1.00;;;;;;4930337;28;20568;-85
2022/11/10 02:17:14;;;;;;;;;;;;;;;;;;;;;
2022/11/10 02:19:42;;;;;;;7.43;2.20;;;13.00;1.00;;;;;;4922333;28;39886;-85
2022/11/10 02:22:12;;;;;;;7.07;2.33;;;12.90;1.00;;;;;;4924786;28;20492;-85
2022/11/10 02:24:42;;;;;;;7.27;2.20;;;12.90;1.00;;;;;;4931472;28;20465;-87
2022/11/10 02:27:12;;;;;;;6.87;2.60;;;12.70;1.00;;;;;;4929165;28;20471;-86
2022/11/10 02:29:41;;;;;;;7.40;2.47;;;12.70;1.00;;;;;;4925974;28;20557;-86
2022/11/10 02:32:13;;;;;;;9.80;2.97;;;12.60;1.00;;;;;;4928403;28;20483;-86
2022/11/10 02:34:43;;;;;;;8.40;2.33;;;12.50;1.00;;;;;;4925555;28;20525;-85
2022/11/10 02:37:12;;;;;;;6.30;2.10;;;12.60;1.00;;;;;;4924983;28;20483;-86
2022/11/10 02:39:40;;;;;;;6.70;2.10;;;12.50;1.00;;;;;;4927072;28;20480;-85
2022/11/10 02:42:17;;;;;;;9.50;2.53;;;12.60;1.00;;;;;;4929387;28;20570;-85
2022/11/10 02:44:51;;;;;;;7.30;2.70;;;12.60;1.00;;;;;;4929150;28;20545;-86
2022/11/10 02:47:33;;;;;;;8.33;2.63;;;12.60;1.00;;;;;;4926274;29;21365;-86
2022/11/10 02:50:03;;;;;;;8.13;2.83;;;12.70;1.00;;;;;;4925515;28;20474;-86
2022/11/10 02:52:33;;;;;;;7.30;2.80;;;12.70;1.00;;;;;;4926341;28;20522;-85
2022/11/10 02:55:14;;;;;;;8.17;2.20;;;12.70;1.00;;;;;;4928222;28;20467;-86
2022/11/10 02:57:41;;;;;;;9.30;2.43;;;12.70;1.00;;;;;;4929897;28;21302;-84
2022/11/10 03:00:09;;;;;;;8.60;3.07;;;12.70;1.00;;;;;;4930189;28;20509;-86
2022/11/10 03:02:36;;;;;;;7.07;2.30;;;12.70;1.00;;;;;;4935458;28;21877;-85
2022/11/10 03:05:03;;;;;;;9.50;2.23;;;12.70;1.00;;;;;;4923152;28;20552;-85
2022/11/10 03:07:32;;;;;;;6.63;2.40;;;12.70;1.00;;;;;;4924500;28;20491;-85
2022/11/10 03:10:01;;;;;;;8.90;2.20;;;12.80;1.00;;;;;;4924118;28;20475;-86
2022/11/10 03:12:31;;;;;;;7.97;2.40;;;12.90;1.00;;;;;;4930336;28;20506;-84
2022/11/10 03:15:02;;;;;;;9.30;2.57;;;12.80;1.00;;;;;;4932556;28;20959;-84
2022/11/10 03:17:34;;;;;;;7.93;2.47;;;12.80;1.00;;;;;;4927746;28;21272;-84
2022/11/10 03:20:01;;;;;;;8.10;2.27;;;12.80;1.00;;;;;;4924361;28;20522;-85
2022/11/10 03:22:29;;;;;;;7.63;2.43;;;12.90;1.00;;;;;;4919311;28;20469;-87
2022/11/10 03:24:58;;;;;;;7.53;2.77;;;12.90;1.00;;;;;;4936091;28;20550;-86
2022/11/10 03:27:25;;;;;;;6.80;2.00;;;12.90;1.00;;;;;;4927027;28;20570;-85
2022/11/10 03:29:52;;;;;;;7.27;2.50;;;12.90;1.00;;;;;;4924531;28;20622;-86
2022/11/10 03:32:21;;;;;;;9.30;2.47;;;12.90;1.00;;;;;;4928459;28;20547;-86
2022/11/10 03:34:54;;;;;;;7.30;2.27;;;12.90;1.00;;;;;;4925449;28;20441;-86
2022/11/10 03:37:30;;;;;;;9.77;2.30;;;12.80;1.00;;;;;;4929767;28;22670;-86
2022/11/10 03:40:00;;;;;;;8.07;2.70;;;12.80;1.00;;;;;;4929896;28;20463;-85
2022/11/10 03:42:32;;;;;;;6.53;2.60;;;12.80;1.00;;;;;;4931577;28;20480;-85
2022/11/10 03:45:01;;;;;;;8.67;2.43;;;12.70;1.00;;;;;;4934167;28;20459;-86
2022/11/10 03:47:31;;;;;;;8.53;2.80;;;12.70;1.00;;;;;;4937322;28;20478;-85
2022/11/10 03:50:00;;;;;;;8.53;3.53;;;12.70;1.00;;;;;;4933893;28;20560;-86
2022/11/10 03:52:33;;;;;;;10.50;2.30;;;12.70;1.00;;;;;;4930431;28;20473;-85
2022/11/10 03:55:15;;;;;;;10.27;2.67;;;12.70;1.00;;;;;;4928969;28;20483;-87
2022/11/10 03:57:42;;;;;;;11.17;3.07;;;12.60;1.00;;;;;;4931610;28;20553;-85
2022/11/10 04:00:13;;;;;;;7.40;2.93;;;12.60;1.00;;;;;;4926256;28;20469;-85
2022/11/10 04:02:40;;;;;;;8.17;2.40;;;12.60;1.00;;;;;;4933252;28;20487;-85
2022/11/10 04:10:47;;;;;;;10.60;3.10;;;12.50;1.00;;;;;;4928399;28;20481;-86
2022/11/10 04:16:00;;;;;;;7.87;3.10;;;12.40;1.00;;;;;;4925487;28;20991;-86
2022/11/10 04:18:33;;;;;;;8.67;3.00;;;12.30;1.00;;;;;;4934483;28;20459;-86
2022/11/10 04:21:10;;;;;;;8.20;3.10;;;12.30;1.00;;;;;;4933599;28;20530;-85
2022/11/10 04:23:38;;;;;;;10.27;3.27;;;12.20;1.00;;;;;;4934125;28;20722;-82
2022/11/10 04:26:28;;;;;;;8.17;2.97;;;12.30;1.00;;;;;;4932989;28;20468;-82
2022/11/10 04:28:59;;;;;;;9.30;3.30;;;12.20;1.00;;;;;;4929670;28;21121;-82
2022/11/10 04:31:29;;;;;;;8.40;3.43;;;12.30;1.00;;;;;;4928175;28;20499;-83
2022/11/10 04:33:59;;;;;;;9.97;2.93;;;12.30;1.00;;;;;;4924367;28;20476;-83
2022/11/10 04:36:29;;;;;;;10.80;4.87;;;12.30;1.00;;;;;;4927077;28;21251;-81
2022/11/10 04:38:56;;;;;;;12.40;3.43;;;12.30;1.00;;;;;;4926700;28;21411;-82
2022/11/10 04:41:27;;;;;;;9.53;2.70;;;12.30;1.00;;;;;;4930376;28;20468;-84
2022/11/10 04:43:54;;;;;;;9.03;3.03;;;12.20;1.00;;;;;;4926531;28;20483;-81
2022/11/10 04:46:24;;;;;;;7.80;3.10;;;12.10;1.00;;;;;;4924820;28;20515;-83
2022/11/10 04:48:53;;;;;;;7.50;2.70;;;12.10;1.00;;;;;;4933435;28;20539;-81
2022/11/10 04:51:24;;;;;;;10.27;3.50;;;12.00;1.00;;;;;;4920553;28;20454;-82
2022/11/10 04:53:51;;;;;;;8.73;3.23;;;12.00;1.00;;;;;;4928401;28;20559;-81
2022/11/10 04:56:30;;;;;;;11.90;4.07;;;12.00;1.00;;;;;;4924740;28;20521;-82
2022/11/10 04:58:57;;;;;;;7.10;2.60;;;12.00;1.00;;;;;;4930600;28;20469;-83
2022/11/10 05:01:26;;;;;;;12.40;4.20;;;12.00;1.00;;;;;;4924159;28;20559;-82
2022/11/10 05:03:54;;;;;;;9.87;3.10;;;11.90;1.00;;;;;;4922043;28;21292;-82
2022/11/10 05:06:22;;;;;;;12.17;3.73;;;11.90;1.00;;;;;;4929134;28;20464;-82
2022/11/10 05:08:55;;;;;;;9.03;3.43;;;11.90;1.00;;;;;;4931601;28;20966;-84
2022/11/10 05:11:22;;;;;;;9.27;3.63;;;11.80;1.00;;;;;;4925003;28;20480;-82
2022/11/10 05:16:32;;;;;;;11.03;3.73;;;11.70;1.00;;;;;;4929027;28;20449;-84
2022/11/10 05:19:05;;;;;;;9.60;3.17;;;11.70;1.00;;;;;;4930864;28;21027;-82
2022/11/10 05:21:32;;;;;;;10.10;3.80;;;11.70;1.00;;;;;;4925562;28;20489;-81
2022/11/10 05:24:02;;;;;;;8.83;3.63;;;11.60;1.00;;;;;;4931869;28;20536;-81
2022/11/10 05:26:31;;;;;;;8.07;3.30;;;11.60;1.00;;;;;;4922267;28;20515;-81
2022/11/10 05:29:02;;;;;;;12.53;4.23;;;11.60;1.00;;;;;;4929268;28;20491;-85
2022/11/10 05:31:33;;;;;;;14.90;5.77;;;11.50;1.00;;;;;;4932132;28;20486;-85
2022/11/10 05:34:02;;;;;;;9.10;3.10;;;11.50;1.00;;;;;;4928725;28;20465;-82
2022/11/10 05:36:34;;;;;;;13.30;4.53;;;11.50;1.00;;;;;;4934515;28;21051;-85
2022/11/10 05:39:01;;;;;;;9.90;3.50;;;11.50;1.00;;;;;;4925874;28;20472;-82
2022/11/10 05:41:28;;;;;;;8.90;3.53;;;11.50;1.00;;;;;;4928485;28;20458;-82
2022/11/10 05:43:55;;;;;;;9.67;3.90;;;11.40;1.00;;;;;;4927307;28;20571;-83
2022/11/10 05:46:31;;;;;;;10.83;3.77;;;11.40;1.00;;;;;;4924406;28;20556;-79
2022/11/10 05:49:00;;;;;;;9.70;3.43;;;11.40;1.00;;;;;;4930032;28;20488;-83
2022/11/10 05:51:32;;;;;;;12.53;5.13;;;11.40;1.00;;;;;;4924528;28;20462;-80
2022/11/10 05:53:58;;;;;;;9.17;3.20;;;11.40;1.00;;;;;;4924816;28;20483;-82
2022/11/10 05:56:25;;;;;;;13.40;4.27;;;11.40;1.00;;;;;;4925315;28;20460;-80
2022/11/10 05:58:55;;;;;;;10.73;4.10;;;11.30;1.00;;;;;;4927232;28;20500;-78
2022/11/10 06:01:23;;;;;;;12.60;3.80;;;11.30;1.00;;;;;;4928645;28;20540;-80
2022/11/10 06:03:50;;;;;;;13.23;4.10;;;11.30;1.00;;;;;;4924397;28;20999;-80
2022/11/10 06:06:21;;;;;;;9.70;3.67;;;11.30;1.00;;;;;;4928743;28;20493;-79
2022/11/10 06:08:51;;;;;;;13.50;5.10;;;11.30;1.00;;;;;;4924750;28;20500;-80
2022/11/10 06:11:22;;;;;;;13.20;4.50;;;11.30;1.00;;;;;;4931123;28;20441;-82
2022/11/10 06:13:52;;;;;;;9.10;4.17;;;11.30;1.00;;;;;;4929657;28;20548;-82
2022/11/10 06:16:22;;;;;;;14.50;4.20;;;11.30;1.00;;;;;;4931205;28;20455;-83
2022/11/10 06:18:53;;;;;;;19.70;5.20;;;11.30;1.00;;;;;;4930797;28;21339;-83
2022/11/10 06:21:23;;;;;;;10.40;4.43;;;11.20;1.00;;;;;;4930373;28;20465;-83
2022/11/10 06:23:50;;;;;;;12.50;4.50;;;11.20;1.00;;;;;;4932865;29;20449;-85
2022/11/10 06:26:23;;;;;;;10.07;4.07;;;11.20;1.00;;;;;;4932663;28;20457;-84
2022/11/10 06:28:52;;;;;;;10.27;4.03;;;11.20;1.00;;;;;;4930404;28;20469;-84
2022/11/10 06:31:21;;;;;;;11.37;4.17;;;11.20;1.00;;;;;;4925781;28;21270;-83
2022/11/10 06:34:03;;;;;;;10.53;4.27;;;11.20;1.00;;;;;;4929387;28;20445;-86
2022/11/10 06:36:32;;;;;;;12.10;4.40;;;11.20;1.00;;;;;;4932809;28;20440;-86
2022/11/10 06:39:03;;;;;;;11.57;4.57;;;11.20;1.00;;;;;;4930960;28;20473;-87
2022/11/10 06:41:32;;;;;;;12.23;4.60;;;11.20;1.00;;;;;;4931187;28;20481;-85
2022/11/10 06:44:02;;;;;;;14.23;4.73;;;11.30;1.00;;;;;;4930308;28;20443;-85
2022/11/10 06:46:29;;;;;;;11.57;4.40;;;11.30;1.00;;;;;;4934042;28;20639;-84
2022/11/10 06:49:02;;;;;;;14.30;8.30;;;11.20;1.00;;;;;;4931937;28;20493;-86
2022/11/10 06:51:33;;;;;;;9.83;4.57;;;11.30;1.00;;;;;;4931635;28;20469;-83
2022/11/10 06:54:02;;;;;;;15.87;8.70;;;11.30;1.00;;;;;;4931278;28;20482;-85
2022/11/10 06:56:31;;;;;;;13.63;4.87;;;11.40;1.00;;;;;;4929121;28;20464;-86
2022/11/10 06:59:00;;;;;;;10.83;4.60;;;11.40;1.00;;;;;;4920762;28;20463;-85
2022/11/10 07:01:34;;;;;;;13.80;4.90;;;11.40;1.00;;;;;;4936047;28;20478;-82
2022/11/10 07:04:04;;;;;;;11.20;3.87;;;11.50;1.00;;;;;;4926046;28;20501;-83
2022/11/10 07:06:33;;;;;;;14.57;4.23;;;11.50;1.00;;;;;;4925742;28;20471;-83
2022/11/10 07:09:01;;;;;;;14.97;6.20;;;11.40;1.00;;;;;;4926974;28;20496;-83
2022/11/10 07:11:32;;;;;;;12.60;4.50;;;11.40;1.00;;;;;;4929890;28;21262;-83
2022/11/10 07:14:03;;;;;;;11.73;5.33;;;11.50;1.00;;;;;;4926827;28;20568;-86
2022/11/10 07:16:36;;;;;;;13.03;4.07;;;11.60;1.00;;;;;;4932772;28;20529;-84
2022/11/10 07:19:05;;;;;;;13.27;4.50;;;11.70;1.00;;;;;;4955542;28;20459;-84
2022/11/10 07:21:33;;;;;;;9.90;4.50;;;11.80;1.00;;;;;;4934515;28;20462;-83
2022/11/10 07:24:02;;;;;;;14.67;5.60;;;12.00;1.00;;;;;;4935132;28;20481;-86
2022/11/10 07:26:29;;;;;;;18.20;5.47;;;12.10;1.00;;;;;;4937292;28;20442;-85
2022/11/10 07:28:58;;;;;;;9.60;4.10;;;12.10;1.00;;;;;;4932841;28;21183;-84
2022/11/10 07:31:26;;;;;;;11.20;5.17;;;12.20;1.00;;;;;;4937562;28;20521;-83
2022/11/10 07:33:55;;;;;;;12.43;4.47;;;12.30;1.00;;;;;;4941169;28;20553;-84
2022/11/10 07:36:27;;;;;;;12.77;5.00;;;12.40;1.00;;;;;;4939923;28;20638;-85
2022/11/10 07:38:59;;;;;;;16.60;5.40;;;12.40;1.00;;;;;;4933641;28;20442;-84
2022/11/10 07:41:43;;;;;;;11.03;5.03;;;12.40;1.00;;;;;;4934298;28;20523;-82
2022/11/10 07:44:13;;;;;;;10.80;5.37;;;12.40;1.00;;;;;;4952531;28;21269;-83
2022/11/10 07:46:43;;;;;;;10.63;5.20;;;12.40;1.00;;;;;;4944332;28;20532;-81
2022/11/10 07:49:12;;;;;;;9.67;4.00;;;12.40;1.00;;;;;;4948850;28;20619;-82
2022/11/10 07:51:43;;;;;;;11.30;5.73;;;12.30;1.00;;;;;;4934166;28;20534;-83
2022/11/10 07:54:10;;;;;;;9.00;4.30;;;12.30;1.00;;;;;;4932662;28;20484;-82
2022/11/10 07:56:41;;;;;;;12.23;5.10;;;12.20;1.00;;;;;;4937508;28;21218;-83
2022/11/10 07:59:11;;;;;;;12.07;4.73;;;12.20;1.00;;;;;;4933248;28;20438;-82
2022/11/10 08:01:42;;;;;;;15.20;6.10;;;12.20;1.00;;;;;;4936167;28;20463;-82
2022/11/10 08:04:10;;;;;;;11.13;5.10;;;12.30;1.00;;;;;;4934307;28;20475;-83
2022/11/10 08:06:42;;;;;;;17.23;5.90;;;12.40;1.00;;;;;;4922484;28;20441;-83
2022/11/10 08:09:15;;;;;;;12.40;5.20;;;12.50;1.00;;;;;;4921388;28;20433;-84
2022/11/10 08:11:42;;;;;;;11.90;4.83;;;12.50;1.00;;;;;;4928302;28;20509;-82
2022/11/10 08:14:12;;;;;;;11.97;5.43;;;12.70;1.00;;;;;;4933880;28;20475;-81
2022/11/10 08:16:42;;;;;;;16.70;5.10;;;12.80;1.00;;;;;;4946369;28;20583;-83
2022/11/10 08:19:21;;;;;;;12.17;4.97;;;12.90;1.00;;;;;;4923765;28;20479;-83
2022/11/10 08:21:57;;;;;;;10.93;4.80;;;13.00;1.00;;;;;;4949614;28;20531;-84
2022/11/10 08:24:25;;;;;;;17.03;5.10;;;13.10;1.00;;;;;;4925632;28;21204;-84
2022/11/10 08:26:53;;;;;;;12.60;5.03;;;13.20;1.00;;;;;;4929196;28;20444;-83
2022/11/10 08:29:23;;;;;;;15.33;4.80;;;13.30;1.00;;;;;;4933109;28;20527;-83
2022/11/10 08:31:53;;;;;;;11.00;4.80;;;13.40;1.00;;;;;;4917276;28;20528;-84
2022/11/10 08:34:22;;;;;;;14.37;5.00;;;13.60;1.00;;;;;;4945440;28;20472;-81
2022/11/10 08:36:53;;;;;;;18.20;6.13;;;13.70;1.00;;;;;;4922420;28;20565;-83
2022/11/10 08:39:22;;;;;;;14.57;5.93;;;13.70;1.00;;;;;;4941814;28;20999;-81
2022/11/10 08:41:53;;;;;;;12.60;5.00;;;13.70;1.00;;;;;;4929549;28;20456;-83
2022/11/10 08:44:24;;;;;;;12.27;5.00;;;13.70;1.00;;;;;;4928026;28;20463;-83
2022/11/10 08:46:51;;;;;;;13.73;5.40;;;13.80;1.00;;;;;;4920754;28;20513;-83
2022/11/10 08:49:18;;;;;;;17.10;5.40;;;13.90;1.00;;;;;;4933438;28;20504;-83
2022/11/10 08:51:53;;;;;;;13.80;5.33;;;14.00;1.00;;;;;;4931460;28;20455;-82
2022/11/10 08:54:24;;;;;;;12.10;5.60;;;14.00;1.00;;;;;;4917695;28;20895;-82
2022/11/10 08:56:54;;;;;;;11.43;5.13;;;14.10;1.00;;;;;;4908447;28;20613;-83
2022/11/10 08:59:23;;;;;;;13.00;5.37;;;14.10;1.00;;;;;;4931031;28;20510;-85
2022/11/10 09:01:51;;;;;;;10.10;4.63;;;13.90;1.00;;;;;;4943055;28;20474;-84
2022/11/10 09:04:20;;;;;;;11.07;5.10;;;13.80;1.00;;;;;;4935828;28;21005;-82
2022/11/10 09:06:51;;;;;;;12.97;5.10;;;14.00;1.00;;;;;;4915738;28;20976;-83
2022/11/10 09:09:30;;;;;;;13.53;4.33;;;14.10;1.00;;;;;;4925224;28;20972;-83
2022/11/10 09:11:59;;;;;;;12.43;5.10;;;14.20;1.00;;;;;;4930066;28;20431;-84
2022/11/10 09:14:33;;;;;;;11.40;6.40;;;14.50;1.00;;;;;;4925205;28;20530;-83
2022/11/10 09:17:03;;;;;;;10.57;4.63;;;15.00;1.00;;;;;;4920853;28;20529;-84
2022/11/10 09:19:34;;;;;;;9.53;4.93;;;15.70;1.00;;;;;;4927536;28;20579;-83
2022/11/10 09:22:04;;;;;;;12.60;4.47;;;15.90;1.00;;;;;;4915305;28;21023;-82
2022/11/10 09:24:34;;;;;;;13.73;6.90;;;15.70;1.00;;;;;;4912205;28;20481;-83
2022/11/10 09:27:03;;;;;;;10.27;4.60;;;15.60;1.00;;;;;;4935880;28;20431;-83
2022/11/10 09:29:32;;;;;;;10.90;4.50;;;15.60;1.00;;;;;;4937788;28;20463;-83
2022/11/10 09:32:05;;;;;;;11.93;4.60;;;15.60;1.00;;;;;;4905299;28;20472;-83
2022/11/10 09:34:34;;;;;;;15.77;4.67;;;15.50;1.00;;;;;;4939545;28;20467;-84
2022/11/10 09:37:03;;;;;;;9.60;4.27;;;15.30;1.00;;;;;;4920184;28;20486;-82
2022/11/10 09:39:30;;;;;;;11.53;4.00;;;15.20;1.00;;;;;;4939328;28;20468;-85
2022/11/10 09:41:57;;;;;;;10.33;4.63;;;15.30;1.00;;;;;;4925805;28;20571;-84
2022/11/10 09:44:28;;;;;;;11.20;4.70;;;15.50;1.00;;;;;;4940894;28;20477;-83
2022/11/10 09:47:01;;;;;;;10.00;4.83;;;15.70;1.00;;;;;;4910155;28;20471;-83
2022/11/10 09:49:38;;;;;;;11.43;4.67;;;15.80;1.00;;;;;;4921693;28;20448;-82
2022/11/10 09:52:06;;;;;;;10.97;4.60;;;16.00;1.00;;;;;;4921736;28;21318;-80
2022/11/10 09:54:42;;;;;;;10.53;4.30;;;16.10;1.00;;;;;;4919211;28;20473;-84
2022/11/10 09:57:16;;;;;;;12.13;4.13;;;15.90;1.00;;;;;;4908208;28;20541;-82
2022/11/10 09:59:47;;;;;;;11.53;4.30;;;15.70;1.00;;;;;;4938165;28;20420;-82
2022/11/10 10:02:23;;;;;;;12.60;5.10;;;15.50;1.00;;;;;;4942072;28;20497;-84
2022/11/10 10:05:07;;;;;;;15.70;4.80;;;15.50;1.00;;;;;;4939907;28;20544;-83
2022/11/10 10:07:47;;;;;;;9.50;4.93;;;16.10;1.00;;;;;;4926565;28;20471;-83
2022/11/10 10:10:21;;;;;;;11.80;4.90;;;16.20;1.00;;;;;;4918700;28;20578;-83
2022/11/10 10:13:00;;;;;;;11.60;3.80;;;16.40;1.00;;;;;;4918068;28;20451;-84
2022/11/10 10:15:41;;;;;;;9.10;4.17;;;16.90;1.00;;;;;;4919731;28;20506;-83
2022/11/10 10:18:22;;;;;;;11.63;4.90;;;17.70;1.00;;;;;;4929245;28;20512;-84
2022/11/10 10:21:05;;;;;;;10.57;4.17;;;17.80;1.00;;;;;;4924605;28;20460;-82
2022/11/10 10:23:36;;;;;;;12.73;4.13;;;17.30;1.00;;;;;;4922118;29;20558;-84
2022/11/10 10:26:03;;;;;;;12.30;5.00;;;17.00;1.00;;;;;;4928851;28;20520;-84
2022/11/10 10:28:37;;;;;;;14.93;5.63;;;17.10;1.00;;;;;;4933871;28;20427;-84
2022/11/10 10:31:27;;;;;;;12.70;4.80;;;17.00;1.00;;;;;;4913903;28;20449;-82
2022/11/10 10:33:55;;;;;;;10.33;3.80;;;17.20;1.00;;;;;;4929448;28;20438;-82
2022/11/10 10:36:30;;;;;;;11.00;4.40;;;17.50;1.00;;;;;;4932619;28;20460;-81
2022/11/10 10:39:05;;;;;;;15.50;5.30;;;17.80;1.00;;;;;;4931956;28;21289;-82
2022/11/10 10:41:33;;;;;;;8.73;4.17;;;18.20;1.00;;;;;;4927325;28;20463;-82
2022/11/10 10:44:09;;;;;;;11.03;3.30;;;18.50;1.00;;;;;;4935191;28;20491;-83
2022/11/10 10:46:48;;;;;;;9.87;3.50;;;18.70;1.00;;;;;;4923631;28;20499;-83
2022/11/10 10:49:24;;;;;;;10.10;3.70;;;19.00;1.00;;;;;;4923874;28;20589;-82
2022/11/10 10:52:04;;;;;;;8.40;4.00;;;19.20;1.00;;;;;;4917407;28;20495;-82
2022/11/10 10:54:32;;;;;;;13.10;4.43;;;19.30;1.00;;;;;;4925421;28;20565;-83
2022/11/10 10:57:02;;;;;;;9.07;4.10;;;19.10;1.00;;;;;;4919045;28;20512;-82
2022/11/10 10:59:33;;;;;;;11.20;4.50;;;18.70;1.00;;;;;;4936576;28;20457;-83
2022/11/10 11:02:01;;;;;;;8.90;3.83;;;18.50;1.00;;;;;;4922157;28;20488;-83
2022/11/10 11:04:32;;;;;;;11.60;4.77;;;18.00;1.00;;;;;;4923574;28;20476;-83
2022/11/10 11:07:01;;;;;;;9.00;3.97;;;17.70;1.00;;;;;;4925458;28;21137;-85
2022/11/10 11:09:30;;;;;;;12.60;3.93;;;17.30;1.00;;;;;;4926376;28;20934;-81
2022/11/10 11:12:06;;;;;;;12.53;3.70;;;17.30;1.00;;;;;;4923746;28;20453;-81
2022/11/10 11:14:36;;;;;;;13.13;3.80;;;17.20;1.00;;;;;;4928769;28;20547;-82
2022/11/10 11:17:20;;;;;;;10.70;4.37;;;17.10;1.00;;;;;;4927661;28;20457;-81
2022/11/10 11:19:51;;;;;;;11.07;2.93;;;17.10;1.00;;;;;;4915224;28;20425;-82
2022/11/10 11:22:50;;;;;;;9.13;3.73;;;18.10;1.00;;;;;;4928303;28;20558;-81
2022/11/10 11:25:34;;;;;;;9.07;3.43;;;19.70;1.00;;;;;;4909106;28;20485;-84
2022/11/10 11:28:13;;;;;;;8.87;3.13;;;20.60;1.00;;;;;;4944212;28;20658;-87
2022/11/10 11:30:52;;;;;;;11.40;3.63;;;20.50;1.00;;;;;;4934566;28;20513;-85
2022/11/10 11:33:33;;;;;;;12.20;3.50;;;19.80;1.00;;;;;;4922811;28;20511;-85
2022/11/10 11:36:08;;;;;;;10.67;3.77;;;19.30;1.00;;;;;;4928538;28;20482;-85
2022/11/10 11:38:52;;;;;;;11.70;4.63;;;18.60;1.00;;;;;;4922965;28;20473;-83
2022/11/10 11:41:28;;;;;;;12.37;4.00;;;18.20;1.00;;;;;;4930712;28;20487;-83
2022/11/10 11:44:15;;;;;;;9.20;3.13;;;18.50;1.00;;;;;;4931776;28;20466;-84
2022/11/10 11:46:49;;;;;;;10.50;3.90;;;18.70;1.00;;;;;;4934313;28;21238;-84
2022/11/10 11:49:58;;;;;;;10.30;3.70;;;18.70;1.00;;;;;;4922154;28;20506;-84
2022/11/10 11:52:36;;;;;;;11.50;4.50;;;18.60;1.00;;;;;;4934389;28;20437;-84
2022/11/10 11:55:24;;;;;;;9.73;3.60;;;18.00;1.00;;;;;;4932148;28;20539;-84
2022/11/10 11:58:07;;;;;;;10.57;3.97;;;17.50;1.00;;;;;;4932542;28;21198;-84
2022/11/10 12:00:44;;;;;;;12.73;3.30;;;17.20;1.00;;;;;;4930503;28;20487;-84
2022/11/10 12:03:37;;;;;;;9.67;4.20;;;17.10;1.00;;;;;;4928496;28;20545;-84
2022/11/10 12:06:36;;;;;;;10.70;3.30;;;18.20;1.00;;;;;;4922269;28;20516;-86
2022/11/10 12:09:12;;;;;;;6.40;2.53;;;20.10;1.00;;;;;;4932410;28;20439;-84
2022/11/10 12:11:55;;;;;;;12.70;2.90;;;21.50;1.00;;;;;;4931207;28;20514;-85
2022/11/10 12:14:33;;;;;;;9.20;3.90;;;22.10;1.00;;;;;;4939299;28;20942;-84
2022/11/10 12:17:06;;;;;;;52.17;33.27;;;21.40;1.00;;;;;;4923743;28;20473;-84
2022/11/10 12:19:40;;;;;;;10.13;3.90;;;20.30;1.00;;;;;;4938907;28;20463;-85
2022/11/10 12:22:33;;;;;;;8.57;4.40;;;19.60;1.00;;;;;;4926781;28;20460;-84
2022/11/10 12:25:17;;;;;;;8.57;3.47;;;19.10;1.00;;;;;;4927985;28;20464;-83
2022/11/10 12:27:52;;;;;;;11.57;3.90;;;18.40;1.00;;;;;;4943701;28;20461;-83
2022/11/10 12:30:37;;;;;;;15.20;7.87;;;17.80;1.00;;;;;;4933961;28;20405;-83
2022/11/10 12:33:15;;;;;;;12.13;4.60;;;17.60;1.00;;;;;;4930371;28;20441;-84
2022/11/10 12:35:46;;;;;;;7.43;3.07;;;17.50;1.00;;;;;;4946804;28;21149;-83
2022/11/10 12:38:21;;;;;;;8.67;3.00;;;18.20;1.00;;;;;;4936611;28;21414;-82
2022/11/10 12:40:52;;;;;;;8.67;2.70;;;18.70;1.00;;;;;;4921703;28;20607;-84
2022/11/10 12:43:25;;;;;;;9.93;3.67;;;18.60;1.00;;;;;;4924496;28;20479;-83
2022/11/10 12:45:59;;;;;;;6.93;3.10;;;18.70;1.00;;;;;;4936448;28;20437;-83
2022/11/10 12:48:41;;;;;;;11.67;3.90;;;19.70;1.00;;;;;;4920986;28;20453;-84
2022/11/10 12:51:35;;;;;;;7.20;3.20;;;19.80;1.00;;;;;;4917469;28;20430;-84
2022/11/10 12:54:07;;;;;;;10.20;3.63;;;18.90;1.00;;;;;;4930374;28;21357;-85
2022/11/10 12:56:41;;;;;;;11.40;6.13;;;18.50;1.00;;;;;;4951123;28;20490;-85
2022/11/10 12:59:31;;;;;;;8.53;3.20;;;18.30;1.00;;;;;;4918112;28;20503;-84
2022/11/10 13:02:22;;;;;;;14.60;3.50;;;18.00;1.00;;;;;;4922105;28;20479;-87
2022/11/10 13:05:25;;;;;;;13.10;3.50;;;17.60;1.00;;;;;;4923559;28;20480;-86
2022/11/10 13:08:13;;;;;;;9.00;3.27;;;17.20;1.00;;;;;;4927099;28;20954;-85
2022/11/10 13:10:52;;;;;;;10.93;3.40;;;16.90;1.00;;;;;;4920158;28;20435;-84
2022/11/10 13:13:22;;;;;;;6.80;3.10;;;16.70;1.00;;;;;;4930607;28;20467;-85
2022/11/10 13:15:59;;;;;;;11.60;3.30;;;16.60;1.00;;;;;;4916323;28;20562;-84
2022/11/10 13:18:55;;;;;;;9.57;2.87;;;16.60;1.00;;;;;;4913995;28;20545;-85
2022/11/10 13:22:05;;;;;;;10.03;3.33;;;16.70;1.00;;;;;;4926525;28;20552;-85
2022/11/10 13:24:36;;;;;;;8.93;3.53;;;16.70;1.00;;;;;;4913224;28;20521;-82
2022/11/10 13:27:55;;;;;;;10.13;2.80;;;16.70;1.00;;;;;;4913321;28;20487;-84
2022/11/10 13:30:39;;;;;;;10.30;3.03;;;16.80;1.00;;;;;;4901985;28;20441;-86
2022/11/10 13:33:35;;;;;;;8.47;3.27;;;16.70;1.00;;;;;;4932671;28;20521;-85
2022/11/10 13:36:03;;;;;;;12.53;3.57;;;16.40;1.00;;;;;;4929510;28;20441;-85